createdAt,value
2019-05-01T00:01:23.150Z,99.90
2019-05-01T00:03:55.989Z,99.90
2019-05-01T00:06:26.126Z,99.90
2019-05-01T00:08:54.664Z,99.90
2019-05-01T00:11:23.255Z,99.90
2019-05-01T00:13:51.743Z,99.90
2019-05-01T00:16:20.211Z,99.90
2019-05-01T00:18:48.757Z,99.90
2019-05-01T00:21:19.269Z,99.90
2019-05-01T00:23:47.755Z,99.40
2019-05-01T00:26:16.289Z,99.90
2019-05-01T00:28:44.789Z,99.90
2019-05-01T00:31:13.499Z,99.90
2019-05-01T00:33:41.971Z,99.90
2019-05-01T00:36:10.461Z,99.90
2019-05-01T00:38:38.935Z,99.90
2019-05-01T00:41:07.475Z,99.90
2019-05-01T00:43:35.977Z,99.90
2019-05-01T00:46:04.537Z,99.90
2019-05-01T00:48:32.995Z,99.90
2019-05-01T00:51:01.480Z,99.90
2019-05-01T00:53:30.185Z,99.90
2019-05-01T00:56:06.192Z,99.90
2019-05-01T00:58:42.309Z,99.90
2019-05-01T01:01:18.430Z,99.90
2019-05-01T01:03:47.024Z,99.90
2019-05-01T01:06:15.569Z,99.90
2019-05-01T01:08:44.117Z,99.90
2019-05-01T01:11:12.589Z,99.90
2019-05-01T01:13:41.081Z,99.90
2019-05-01T01:16:09.558Z,99.90
2019-05-01T01:18:38.048Z,99.90
2019-05-01T01:21:06.528Z,99.90
2019-05-01T01:23:35.800Z,99.90
2019-05-01T01:26:04.343Z,99.90
2019-05-01T01:28:32.815Z,99.90
2019-05-01T01:31:01.280Z,99.90
2019-05-01T01:33:29.737Z,99.90
2019-05-01T01:35:58.207Z,99.90
2019-05-01T01:38:26.686Z,99.90
2019-05-01T01:40:55.460Z,99.90
2019-05-01T01:43:42.686Z,99.90
2019-05-01T01:46:15.646Z,99.90
2019-05-01T01:48:44.188Z,99.90
2019-05-01T01:51:13.112Z,99.90
2019-05-01T01:53:41.720Z,99.90
2019-05-01T01:56:10.256Z,99.90
2019-05-01T01:58:38.824Z,99.90
2019-05-01T02:01:27.349Z,99.90
2019-05-01T02:04:14.070Z,99.90
2019-05-01T02:06:42.529Z,99.90
2019-05-01T02:09:11.059Z,99.90
2019-05-01T02:11:39.649Z,99.90
2019-05-01T02:14:08.107Z,99.90
2019-05-01T02:16:36.582Z,99.90
2019-05-01T02:19:05.193Z,99.90
2019-05-01T02:21:33.709Z,99.90
2019-05-01T02:24:02.182Z,99.90
2019-05-01T02:26:32.373Z,99.90
2019-05-01T02:29:19.109Z,99.90
2019-05-01T02:31:51.620Z,99.90
2019-05-01T02:34:19.390Z,99.90
2019-05-01T02:36:49.520Z,99.90
2019-05-01T02:39:20.155Z,99.90
2019-05-01T02:41:51.688Z,99.90
2019-05-01T02:44:34.756Z,99.90
2019-05-01T02:47:06.336Z,99.90
2019-05-01T02:49:40.811Z,99.90
2019-05-01T02:52:11.766Z,99.90
2019-05-01T02:54:43.668Z,99.90
2019-05-01T02:57:14.911Z,99.90
2019-05-01T02:59:49.871Z,99.90
2019-05-01T03:02:19.278Z,99.90
2019-05-01T03:04:48.552Z,99.90
2019-05-01T03:07:17.462Z,99.90
2019-05-01T03:09:46.708Z,99.90
2019-05-01T03:12:18.263Z,99.90
2019-05-01T03:14:49.477Z,99.90
2019-05-01T03:17:35.326Z,99.90
2019-05-01T03:20:12.118Z,99.90
2019-05-01T03:22:42.030Z,99.90
2019-05-01T03:25:10.561Z,99.90
2019-05-01T03:27:39.547Z,99.90
2019-05-01T03:30:08.137Z,99.90
2019-05-01T03:32:36.688Z,99.90
2019-05-01T03:35:06.994Z,99.90
2019-05-01T03:37:36.312Z,99.90
2019-05-01T03:40:06.617Z,99.90
2019-05-01T03:42:35.206Z,99.90
2019-05-01T03:45:05.094Z,99.90
2019-05-01T03:47:34.081Z,99.90
2019-05-01T03:50:02.687Z,99.90
2019-05-01T03:52:31.206Z,99.90
2019-05-01T03:55:00.029Z,99.90
2019-05-01T03:57:29.027Z,99.90
2019-05-01T03:59:57.488Z,99.90
2019-05-01T04:02:33.781Z,99.90
2019-05-01T04:04:57.976Z,99.90
2019-05-01T04:07:26.865Z,99.90
2019-05-01T04:09:55.323Z,99.90
2019-05-01T04:12:24.019Z,99.90
2019-05-01T04:14:52.541Z,99.90
2019-05-01T04:17:22.720Z,99.90
2019-05-01T04:19:51.541Z,99.90
2019-05-01T04:22:20.139Z,99.90
2019-05-01T04:24:49.424Z,99.90
2019-05-01T04:27:19.561Z,99.90
2019-05-01T04:29:53.713Z,99.90
2019-05-01T04:32:23.992Z,99.90
2019-05-01T04:34:59.883Z,99.90
2019-05-01T04:37:28.895Z,99.90
2019-05-01T04:39:58.009Z,99.90
2019-05-01T04:42:26.535Z,99.90
2019-05-01T04:44:55.130Z,99.90
2019-05-01T04:47:24.250Z,99.90
2019-05-01T04:49:53.324Z,99.90
2019-05-01T04:52:21.774Z,99.90
2019-05-01T04:54:50.248Z,99.90
2019-05-01T04:57:18.839Z,99.90
2019-05-01T04:59:47.309Z,99.90
2019-05-01T05:02:17.469Z,99.90
2019-05-01T05:04:46.257Z,99.90
2019-05-01T05:07:14.779Z,99.90
2019-05-01T05:09:44.951Z,99.90
2019-05-01T05:12:31.530Z,99.90
2019-05-01T05:15:08.026Z,99.90
2019-05-01T05:17:36.819Z,99.90
2019-05-01T05:20:08.056Z,99.90
2019-05-01T05:22:36.547Z,99.90
2019-05-01T05:25:06.005Z,99.90
2019-05-01T05:27:35.099Z,99.90
2019-05-01T05:30:04.630Z,99.90
2019-05-01T05:32:35.784Z,99.90
2019-05-01T05:35:06.656Z,99.90
2019-05-01T05:37:57.833Z,99.90
2019-05-01T05:40:29.939Z,99.30
2019-05-01T05:42:58.396Z,98.80
2019-05-01T05:45:27.196Z,98.70
2019-05-01T05:47:56.520Z,98.80
2019-05-01T05:50:26.676Z,98.70
2019-05-01T05:53:02.449Z,98.70
2019-05-01T05:55:37.590Z,98.60
2019-05-01T05:58:09.740Z,98.50
2019-05-01T06:00:58.956Z,98.30
2019-05-01T06:03:48.550Z,98.10
2019-05-01T06:06:33.742Z,98.00
2019-05-01T06:09:09.054Z,97.80
2019-05-01T06:11:53.048Z,97.60
2019-05-01T06:14:39.823Z,97.40
2019-05-01T06:17:10.067Z,97.30
2019-05-01T06:19:40.233Z,97.20
2019-05-01T06:22:13.948Z,97.00
2019-05-01T06:24:47.893Z,97.20
2019-05-01T06:27:17.689Z,96.20
2019-05-01T06:29:46.789Z,95.70
2019-05-01T06:32:15.261Z,95.50
2019-05-01T06:34:44.115Z,95.40
2019-05-01T06:37:15.069Z,95.00
2019-05-01T06:39:47.955Z,94.80
2019-05-01T06:42:15.260Z,94.90
2019-05-01T06:44:53.241Z,94.20
2019-05-01T06:47:29.420Z,93.60
2019-05-01T06:50:19.941Z,93.80
2019-05-01T06:52:49.001Z,93.90
2019-05-01T06:55:17.595Z,93.60
2019-05-01T06:57:46.390Z,93.40
2019-05-01T07:00:17.526Z,93.50
2019-05-01T07:02:49.186Z,93.40
2019-05-01T07:05:19.306Z,93.20
2019-05-01T07:07:52.888Z,92.90
2019-05-01T07:10:29.875Z,93.00
2019-05-01T07:12:48.330Z,92.60
2019-05-01T07:15:17.013Z,92.40
2019-05-01T07:17:47.875Z,92.80
2019-05-01T07:20:18.208Z,92.90
2019-05-01T07:22:48.325Z,92.20
2019-05-01T07:25:18.127Z,92.40
2019-05-01T07:27:46.601Z,92.40
2019-05-01T07:30:20.877Z,92.20
2019-05-01T07:32:49.755Z,91.60
2019-05-01T07:35:18.287Z,91.30
2019-05-01T07:37:46.983Z,91.10
2019-05-01T07:40:16.356Z,91.10
2019-05-01T07:42:48.254Z,89.70
2019-05-01T07:45:28.277Z,89.10
2019-05-01T07:48:00.926Z,89.50
2019-05-01T07:50:31.871Z,88.10
2019-05-01T07:52:59.328Z,88.20
2019-05-01T07:55:37.422Z,88.40
2019-05-01T07:58:10.514Z,87.80
2019-05-01T08:00:48.678Z,87.80
2019-05-01T08:03:17.240Z,86.70
2019-05-01T08:05:46.756Z,85.60
2019-05-01T08:08:15.517Z,86.80
2019-05-01T08:10:43.984Z,85.70
2019-05-01T08:13:12.448Z,85.40
2019-05-01T08:15:40.994Z,84.70
2019-05-01T08:18:23.990Z,82.70
2019-05-01T08:20:54.612Z,80.60
2019-05-01T08:23:23.092Z,80.20
2019-05-01T08:25:51.669Z,79.40
2019-05-01T08:28:38.410Z,76.20
2019-05-01T08:31:27.794Z,75.70
2019-05-01T08:33:56.924Z,73.70
2019-05-01T08:36:25.376Z,74.80
2019-05-01T08:38:53.920Z,75.60
2019-05-01T08:41:22.396Z,73.20
2019-05-01T08:43:54.216Z,72.80
2019-05-01T08:46:31.679Z,69.70
2019-05-01T08:49:16.593Z,69.60
2019-05-01T08:51:45.132Z,69.50
2019-05-01T08:54:13.619Z,68.80
2019-05-01T08:56:43.694Z,68.00
2019-05-01T08:59:12.972Z,66.20
2019-05-01T09:01:41.540Z,66.60
2019-05-01T09:04:12.989Z,63.00
2019-05-01T09:06:43.827Z,61.50
2019-05-01T09:09:10.463Z,60.10
2019-05-01T09:11:38.966Z,60.10
2019-05-01T09:14:07.494Z,60.60
2019-05-01T09:16:36.108Z,63.80
2019-05-01T09:19:04.733Z,63.60
2019-05-01T09:21:37.655Z,64.50
2019-05-01T09:24:03.555Z,62.70
2019-05-01T09:26:45.242Z,61.80
2019-05-01T09:29:17.864Z,61.50
2019-05-01T09:31:46.545Z,60.90
2019-05-01T09:34:19.101Z,61.20
2019-05-01T09:36:45.341Z,60.80
2019-05-01T09:39:15.528Z,61.70
2019-05-01T09:41:47.443Z,59.70
2019-05-01T09:44:14.406Z,58.90
2019-05-01T09:46:43.073Z,60.30
2019-05-01T09:49:14.301Z,56.60
2019-05-01T09:51:47.468Z,57.00
2019-05-01T09:54:21.426Z,60.40
2019-05-01T09:56:49.990Z,59.30
2019-05-01T09:59:19.151Z,59.50
2019-05-01T10:01:47.781Z,59.20
2019-05-01T10:04:16.253Z,61.70
2019-05-01T10:06:47.640Z,56.60
2019-05-01T10:09:16.887Z,58.10
2019-05-01T10:11:48.910Z,57.40
2019-05-01T10:14:16.659Z,56.40
2019-05-01T10:16:49.247Z,53.50
2019-05-01T10:19:17.764Z,53.10
2019-05-01T10:21:46.309Z,52.70
2019-05-01T10:24:14.845Z,52.70
2019-05-01T10:26:44.942Z,53.30
2019-05-01T10:29:15.083Z,51.90
2019-05-01T10:32:00.025Z,51.90
2019-05-01T10:34:47.564Z,50.10
2019-05-01T10:37:16.039Z,50.20
2019-05-01T10:39:44.597Z,48.00
2019-05-01T10:42:13.120Z,51.00
2019-05-01T10:44:41.628Z,36.30
2019-05-01T10:47:10.094Z,31.90
2019-05-01T10:49:38.549Z,28.60
2019-05-01T10:52:14.037Z,27.10
2019-05-01T10:54:37.196Z,26.00
2019-05-01T10:57:05.770Z,25.40
2019-05-01T10:59:34.329Z,24.60
2019-05-01T11:02:04.508Z,24.80
2019-05-01T11:04:32.976Z,23.70
2019-05-01T11:07:01.450Z,25.20
2019-05-01T11:09:29.947Z,25.80
2019-05-01T11:12:03.160Z,24.00
2019-05-01T11:14:31.012Z,23.60
2019-05-01T11:16:59.512Z,24.20
2019-05-01T11:19:35.608Z,23.10
2019-05-01T11:22:39.983Z,22.90
2019-05-01T11:24:47.729Z,22.10
2019-05-01T11:27:16.207Z,22.70
2019-05-01T11:29:44.697Z,21.90
2019-05-01T11:32:20.420Z,22.60
2019-05-01T11:34:50.530Z,22.40
2019-05-01T11:37:20.624Z,22.30
2019-05-01T11:39:56.567Z,22.30
2019-05-01T11:42:33.307Z,21.60
2019-05-01T11:45:01.886Z,21.20
2019-05-01T11:47:30.344Z,21.10
2019-05-01T11:49:58.830Z,20.80
2019-05-01T11:52:27.309Z,20.70
2019-05-01T11:55:04.102Z,21.80
2019-05-01T11:57:35.444Z,21.60
2019-05-01T12:00:06.603Z,20.80
2019-05-01T12:02:35.089Z,20.10
2019-05-01T12:05:05.024Z,20.40
2019-05-01T12:07:36.384Z,20.40
2019-05-01T12:10:14.414Z,20.60
2019-05-01T12:12:51.011Z,21.80
2019-05-01T12:15:22.930Z,19.60
2019-05-01T12:17:53.064Z,20.60
2019-05-01T12:20:27.635Z,21.80
2019-05-01T12:23:02.802Z,22.10
2019-05-01T12:25:32.844Z,20.80
2019-05-01T12:28:01.314Z,20.50
2019-05-01T12:30:34.349Z,20.40
2019-05-01T12:33:07.215Z,19.90
2019-05-01T12:35:39.237Z,20.40
2019-05-01T12:38:10.461Z,20.70
2019-05-01T12:40:38.992Z,20.80
2019-05-01T12:43:12.399Z,21.20
2019-05-01T12:45:43.231Z,20.60
2019-05-01T12:48:19.585Z,21.30
2019-05-01T12:50:44.625Z,20.80
2019-05-01T12:53:22.822Z,21.50
2019-05-01T12:55:55.855Z,23.00
2019-05-01T12:58:28.912Z,24.80
2019-05-01T13:00:57.426Z,24.00
2019-05-01T13:03:26.006Z,22.90
2019-05-01T13:05:59.000Z,23.30
2019-05-01T13:08:27.463Z,21.80
2019-05-01T13:10:57.477Z,21.10
2019-05-01T13:13:28.337Z,21.00
2019-05-01T13:15:58.349Z,20.60
2019-05-01T13:18:29.896Z,19.30
2019-05-01T13:20:58.391Z,20.20
2019-05-01T13:23:31.360Z,21.80
2019-05-01T13:26:03.015Z,23.80
2019-05-01T13:28:37.036Z,24.50
2019-05-01T13:31:14.750Z,25.30
2019-05-01T13:33:43.250Z,25.50
2019-05-01T13:36:14.901Z,25.80
2019-05-01T13:38:45.890Z,26.50
2019-05-01T13:41:17.718Z,27.40
2019-05-01T13:43:51.634Z,31.90
2019-05-01T13:46:23.235Z,29.10
2019-05-01T13:48:51.696Z,26.40
2019-05-01T13:51:20.165Z,21.70
2019-05-01T13:53:48.628Z,21.50
2019-05-01T13:56:21.476Z,20.70
2019-05-01T13:58:50.011Z,21.00
2019-05-01T14:01:19.031Z,21.10
2019-05-01T14:03:47.495Z,22.40
2019-05-01T14:06:15.979Z,23.20
2019-05-01T14:08:44.431Z,23.60
2019-05-01T14:11:12.919Z,21.90
2019-05-01T14:13:41.458Z,24.00
2019-05-01T14:16:09.968Z,24.00
2019-05-01T14:18:38.433Z,25.00
2019-05-01T14:21:23.615Z,24.60
2019-05-01T14:24:08.492Z,23.40
2019-05-01T14:26:36.954Z,24.50
2019-05-01T14:29:05.529Z,23.80
2019-05-01T14:31:33.983Z,22.50
2019-05-01T14:34:02.451Z,22.40
2019-05-01T14:36:30.925Z,22.60
2019-05-01T14:38:59.383Z,24.50
2019-05-01T14:41:27.838Z,25.10
2019-05-01T14:43:56.307Z,23.70
2019-05-01T14:46:24.783Z,22.70
2019-05-01T14:48:53.275Z,21.90
2019-05-01T14:51:21.979Z,23.30
2019-05-01T14:53:50.587Z,23.60
2019-05-01T14:56:19.053Z,24.60
2019-05-01T14:58:47.507Z,25.30
2019-05-01T15:01:15.991Z,25.40
2019-05-01T15:03:44.503Z,26.00
2019-05-01T15:06:13.056Z,25.80
2019-05-01T15:08:41.588Z,25.00
2019-05-01T15:11:10.038Z,24.50
2019-05-01T15:13:43.067Z,22.90
2019-05-01T15:16:22.274Z,23.10
2019-05-01T15:19:04.519Z,22.60
2019-05-01T15:21:33.009Z,23.10
2019-05-01T15:24:01.480Z,23.20
2019-05-01T15:26:29.941Z,22.80
2019-05-01T15:28:58.408Z,22.60
2019-05-01T15:31:26.857Z,23.40
2019-05-01T15:33:55.349Z,24.80
2019-05-01T15:36:23.816Z,23.60
2019-05-01T15:38:52.263Z,23.20
2019-05-01T15:41:25.030Z,23.10
2019-05-01T15:44:03.814Z,22.50
2019-05-01T15:46:33.314Z,23.30
2019-05-01T15:49:01.764Z,22.20
2019-05-01T15:51:30.283Z,22.60
2019-05-01T15:53:58.774Z,28.90
2019-05-01T15:56:27.324Z,26.30
2019-05-01T15:58:55.873Z,27.40
2019-05-01T16:01:24.348Z,27.00
2019-05-01T16:03:52.897Z,26.20
2019-05-01T16:06:21.364Z,26.80
2019-05-01T16:08:49.896Z,27.50
2019-05-01T16:11:32.057Z,28.20
2019-05-01T16:14:01.118Z,29.00
2019-05-01T16:16:29.651Z,50.50
2019-05-01T16:18:58.119Z,50.10
2019-05-01T16:21:26.568Z,50.30
2019-05-01T16:23:55.030Z,46.30
2019-05-01T16:26:24.154Z,45.10
2019-05-01T16:28:52.656Z,44.10
2019-05-01T16:31:21.259Z,46.60
2019-05-01T16:33:49.768Z,46.70
2019-05-01T16:36:20.380Z,45.30
2019-05-01T16:39:05.181Z,45.50
2019-05-01T16:41:33.739Z,45.70
2019-05-01T16:44:02.189Z,44.60
2019-05-01T16:46:30.652Z,39.10
2019-05-01T16:48:59.106Z,39.70
2019-05-01T16:51:27.668Z,40.10
2019-05-01T16:53:56.152Z,41.20
2019-05-01T16:56:25.497Z,42.50
2019-05-01T16:58:54.016Z,43.50
2019-05-01T17:01:24.184Z,44.90
2019-05-01T17:04:00.302Z,43.20
2019-05-01T17:06:39.689Z,41.00
2019-05-01T17:09:20.883Z,40.40
2019-05-01T17:11:49.334Z,42.70
2019-05-01T17:14:18.732Z,44.20
2019-05-01T17:16:47.250Z,44.70
2019-05-01T17:19:15.773Z,44.70
2019-05-01T17:21:44.305Z,33.50
2019-05-01T17:24:20.258Z,33.30
2019-05-01T17:26:48.768Z,34.70
2019-05-01T17:29:17.224Z,34.70
2019-05-01T17:31:45.758Z,35.50
2019-05-01T17:34:14.227Z,36.90
2019-05-01T17:36:42.698Z,37.60
2019-05-01T17:39:11.903Z,37.00
2019-05-01T17:41:40.371Z,36.80
2019-05-01T17:44:08.891Z,36.90
2019-05-01T17:46:37.427Z,37.50
2019-05-01T17:49:09.288Z,38.70
2019-05-01T17:51:36.075Z,38.80
2019-05-01T17:54:04.535Z,39.40
2019-05-01T17:56:33.003Z,40.30
2019-05-01T17:59:01.583Z,40.60
2019-05-01T18:01:33.390Z,41.10
2019-05-01T18:04:12.519Z,41.60
2019-05-01T18:06:46.490Z,41.30
2019-05-01T18:09:15.694Z,42.20
2019-05-01T18:11:47.244Z,42.50
2019-05-01T18:14:14.443Z,43.50
2019-05-01T18:16:42.908Z,44.70
2019-05-01T18:19:11.364Z,45.80
2019-05-01T18:22:00.791Z,47.40
2019-05-01T18:24:39.048Z,47.90
2019-05-01T18:27:26.486Z,48.10
2019-05-01T18:29:56.675Z,47.80
2019-05-01T18:32:32.816Z,49.40
2019-05-01T18:35:03.068Z,50.90
2019-05-01T18:37:35.107Z,53.50
2019-05-01T18:40:09.192Z,56.60
2019-05-01T18:42:37.655Z,59.10
2019-05-01T18:45:12.230Z,62.00
2019-05-01T18:47:40.674Z,62.50
2019-05-01T18:50:09.134Z,64.40
2019-05-01T18:52:39.137Z,65.70
2019-05-01T18:55:07.725Z,67.10
2019-05-01T18:57:36.504Z,68.50
2019-05-01T19:00:06.863Z,68.80
2019-05-01T19:02:35.319Z,68.20
2019-05-01T19:05:08.901Z,68.20
2019-05-01T19:07:35.410Z,67.90
2019-05-01T19:10:05.120Z,68.60
2019-05-01T19:12:33.652Z,68.90
2019-05-01T19:15:05.563Z,68.90
2019-05-01T19:17:32.451Z,69.20
2019-05-01T19:20:00.910Z,69.30
2019-05-01T19:22:29.379Z,70.50
2019-05-01T19:24:57.910Z,70.70
2019-05-01T19:27:26.370Z,71.40
2019-05-01T19:29:57.795Z,72.30
2019-05-01T19:32:25.409Z,72.60
2019-05-01T19:34:53.872Z,73.30
2019-05-01T19:37:23.987Z,73.70
2019-05-01T19:39:53.805Z,74.70
2019-05-01T19:42:23.675Z,74.10
2019-05-01T19:44:56.255Z,71.90
2019-05-01T19:47:22.593Z,71.40
2019-05-01T19:49:54.199Z,72.30
2019-05-01T19:52:21.380Z,72.30
2019-05-01T19:54:49.884Z,72.00
2019-05-01T19:57:18.863Z,74.70
2019-05-01T19:59:47.492Z,74.50
2019-05-01T20:02:17.316Z,76.00
2019-05-01T20:04:50.610Z,77.90
2019-05-01T20:07:19.760Z,79.00
2019-05-01T20:09:56.749Z,79.00
2019-05-01T20:12:17.066Z,79.60
2019-05-01T20:14:45.535Z,80.00
2019-05-01T20:17:14.097Z,78.90
2019-05-01T20:19:42.605Z,79.80
2019-05-01T20:22:11.071Z,80.40
2019-05-01T20:24:39.861Z,79.40
2019-05-01T20:27:09.797Z,79.40
2019-05-01T20:29:40.327Z,79.90
2019-05-01T20:32:08.504Z,80.40
2019-05-01T20:34:37.061Z,81.20
2019-05-01T20:37:05.535Z,82.40
2019-05-01T20:39:34.089Z,82.60
2019-05-01T20:42:02.933Z,83.40
2019-05-01T20:44:31.403Z,83.40
2019-05-01T20:47:02.598Z,83.70
2019-05-01T20:49:30.098Z,83.60
2019-05-01T20:51:58.577Z,83.20
2019-05-01T20:54:27.108Z,82.90
2019-05-01T20:57:03.146Z,83.60
2019-05-01T20:59:35.286Z,84.60
2019-05-01T21:02:07.675Z,84.60
2019-05-01T21:04:33.701Z,83.80
2019-05-01T21:07:19.947Z,83.30
2019-05-01T21:09:57.733Z,84.00
2019-05-01T21:12:27.029Z,84.50
2019-05-01T21:14:55.557Z,85.40
2019-05-01T21:17:24.116Z,85.70
2019-05-01T21:19:54.329Z,86.00
2019-05-01T21:22:23.425Z,85.70
2019-05-01T21:24:53.298Z,86.10
2019-05-01T21:27:21.849Z,87.20
2019-05-01T21:29:50.298Z,88.20
2019-05-01T21:32:26.147Z,89.00
2019-05-01T21:34:48.927Z,89.60
2019-05-01T21:37:17.424Z,90.00
2019-05-01T21:39:45.934Z,90.00
2019-05-01T21:42:15.943Z,90.00
2019-05-01T21:44:44.562Z,90.00
2019-05-01T21:47:13.932Z,90.00
2019-05-01T21:49:43.075Z,90.10
2019-05-01T21:52:13.372Z,89.80
2019-05-01T21:54:41.817Z,90.00
2019-05-01T21:57:11.866Z,90.20
2019-05-01T21:59:44.831Z,90.50
2019-05-01T22:02:11.987Z,90.90
2019-05-01T22:04:40.868Z,90.70
2019-05-01T22:07:09.313Z,90.60
2019-05-01T22:09:39.151Z,90.90
2019-05-01T22:12:08.299Z,91.20
2019-05-01T22:14:45.281Z,91.50
2019-05-01T22:17:15.519Z,91.80
2019-05-01T22:19:44.051Z,91.90
2019-05-01T22:22:30.423Z,91.90
2019-05-01T22:25:00.534Z,91.80
2019-05-01T22:27:33.414Z,91.60
2019-05-01T22:30:12.714Z,91.70
2019-05-01T22:32:42.984Z,91.50
2019-05-01T22:35:19.181Z,91.40
2019-05-01T22:37:47.633Z,91.60
2019-05-01T22:40:17.931Z,91.50
2019-05-01T22:42:46.403Z,91.80
2019-05-01T22:45:17.929Z,91.80
2019-05-01T22:47:50.715Z,91.80
2019-05-01T22:50:16.848Z,92.20
2019-05-01T22:52:45.307Z,92.30
2019-05-01T22:55:15.396Z,92.40
2019-05-01T22:57:43.954Z,92.30
2019-05-01T23:00:41.461Z,92.40
2019-05-01T23:03:11.648Z,92.30
2019-05-01T23:05:40.092Z,92.20
2019-05-01T23:08:09.378Z,92.00
2019-05-01T23:10:41.863Z,92.00
2019-05-01T23:13:08.000Z,92.00
2019-05-01T23:15:36.457Z,91.80
2019-05-01T23:18:04.970Z,91.90
2019-05-01T23:20:34.780Z,91.90
2019-05-01T23:23:03.736Z,92.10
2019-05-01T23:25:36.672Z,92.10
2019-05-01T23:28:04.293Z,92.00
2019-05-01T23:30:32.675Z,92.20
2019-05-01T23:33:01.135Z,92.30
2019-05-01T23:35:29.660Z,92.20
2019-05-01T23:37:58.195Z,91.40
2019-05-01T23:40:26.645Z,91.20
2019-05-01T23:42:55.104Z,91.10
2019-05-01T23:45:23.664Z,91.30
2019-05-01T23:47:52.168Z,91.00
2019-05-01T23:50:20.620Z,91.20
2019-05-01T23:52:49.108Z,91.20
2019-05-01T23:55:17.552Z,91.40
2019-05-01T23:57:46.024Z,91.70
